KACB/ACB METAR and TAF weather

Enter ICAO airport designator
Station Type Date Time Source
KACB METAR 2019/04/19 22:15 UTC NOAA

KACB 192215Z AUTO 34008G14KT 310V020 10SM CLR 12/M04 A2989 RMK AO2 T01201043


Station Type Date Time Source
KACB Decoded METAR 2019/04/19 22:15 UTC NOAA

Bellaire, Antrim County Airport, MI, United States (KACB) 44-59-18N 085-11-54W
Apr 19, 2019 - 06:15 PM EDT / 2019.04.19 2215 UTC
Wind: from the NNW (340 degrees) at 9 MPH (8 KT) gusting to 16 MPH (14 KT) (direction variable):0
Visibility: 10 mile(s):0
Sky conditions: clear
Temperature: 53.6 F (12.0 C)
Dew Point: 24.3 F (-4.3 C)
Relative Humidity: 31%
Pressure (altimeter): 29.89 in. Hg (1012 hPa)
ob: KACB 192215Z AUTO 34008G14KT 310V020 10SM CLR 12/M04 A2989 RMK AO2 T01201043
cycle: 22

Station Type Date Time Source
KACB TAF UTC NOAA

Error!

Example: see airport list